Time;durP1;ratioP1;P1;durP2;ratioP2;P2;SDS_P1;SDS_P2;PMS_P1;PMS_P2;Temp;Humidity;BMP_temperature;BMP_pressure;BME280_temperature;BME280_humidity;BME280_pressure;Samples;Min_cycle;Max_cycle;Signal;HPM_P1;HPM_P2
2021/03/11 00:00:27;;;;;;;6.63;5.97;;;;;;;5.60;61.25;95375.53;5040952;28;20249;-85
2021/03/11 00:02:54;;;;;;;7.73;6.73;;;;;;;5.63;61.03;95375.22;5040846;28;20283;-86
2021/03/11 00:05:20;;;;;;;7.37;5.93;;;;;;;5.56;61.17;95369.94;5040226;28;20220;-85
2021/03/11 00:07:47;;;;;;;8.43;6.20;;;;;;;5.60;60.98;95376.34;5034167;28;20229;-84
2021/03/11 00:10:13;;;;;;;6.60;5.90;;;;;;;5.57;61.24;95368.19;5020645;28;20253;-84
2021/03/11 00:12:43;;;;;;;7.23;6.37;;;;;;;5.49;60.87;95364.63;5020925;28;20234;-86
2021/03/11 00:15:13;;;;;;;7.87;5.70;;;;;;;5.45;60.91;95370.19;5020256;28;20231;-85
2021/03/11 00:17:42;;;;;;;7.37;5.93;;;;;;;5.43;61.17;95366.97;5024234;28;20209;-85
2021/03/11 00:20:13;;;;;;;6.73;5.77;;;;;;;5.38;61.33;95361.53;5040577;28;20585;-86
2021/03/11 00:22:39;;;;;;;6.43;5.57;;;;;;;5.35;60.73;95356.72;5040800;28;20234;-84
2021/03/11 00:25:07;;;;;;;6.77;5.97;;;;;;;5.33;61.45;95356.88;5040424;28;20619;-84
2021/03/11 00:27:33;;;;;;;6.87;5.90;;;;;;;5.30;61.05;95362.28;5040386;28;20233;-86
2021/03/11 00:29:59;;;;;;;6.83;5.83;;;;;;;5.34;61.22;95365.34;5040182;28;20226;-84
2021/03/11 00:32:24;;;;;;;7.37;5.53;;;;;;;5.30;61.20;95357.16;5040812;28;20202;-84
2021/03/11 00:34:50;;;;;;;6.17;5.57;;;;;;;5.34;61.12;95350.81;5041131;28;20216;-84
2021/03/11 00:37:17;;;;;;;6.23;5.63;;;;;;;5.40;60.95;95349.41;5040723;28;20237;-85
2021/03/11 00:39:43;;;;;;;5.53;4.97;;;;;;;5.45;60.89;95350.56;5040536;28;20238;-84
2021/03/11 00:42:09;;;;;;;5.90;5.30;;;;;;;5.42;61.00;95344.94;5040889;28;20593;-85
2021/03/11 00:44:35;;;;;;;6.70;5.50;;;;;;;5.46;60.57;95347.06;5040745;28;20217;-84
2021/03/11 00:47:01;;;;;;;5.80;5.30;;;;;;;5.42;60.26;95347.50;5040513;28;20202;-83
2021/03/11 00:49:27;;;;;;;5.97;5.20;;;;;;;5.42;60.48;95343.19;5040674;28;20260;-83
2021/03/11 00:51:53;;;;;;;5.93;4.90;;;;;;;5.42;60.46;95339.84;5040149;28;20234;-83
2021/03/11 00:54:20;;;;;;;5.57;4.80;;;;;;;5.42;60.53;95334.75;5040916;28;20286;-83
2021/03/11 00:56:46;;;;;;;6.13;5.53;;;;;;;5.45;60.46;95331.88;5040232;28;20236;-85
2021/03/11 00:59:12;;;;;;;5.77;5.17;;;;;;;5.48;60.09;95329.03;5039800;28;20228;-84
2021/03/11 01:01:38;;;;;;;7.60;5.37;;;;;;;5.48;59.64;95324.72;5039467;28;20225;-84
2021/03/11 01:04:05;;;;;;;6.73;4.73;;;;;;;5.50;59.88;95329.69;5039780;28;20296;-84
2021/03/11 01:06:30;;;;;;;5.97;5.27;;;;;;;5.48;59.74;95324.72;5040874;28;20233;-83
2021/03/11 01:08:56;;;;;;;5.43;4.90;;;;;;;5.52;59.12;95325.22;5026475;28;20755;-83
2021/03/11 01:11:23;;;;;;;5.20;4.70;;;;;;;5.50;59.55;95317.72;5034156;28;20279;-83
2021/03/11 01:13:49;;;;;;;6.30;5.00;;;;;;;5.50;59.42;95322.84;5023705;28;20219;-86
2021/03/11 01:16:15;;;;;;;5.23;4.73;;;;;;;5.43;59.53;95323.56;5021390;28;20313;-83
2021/03/11 01:18:41;;;;;;;5.00;4.50;;;;;;;5.48;59.31;95317.06;5039304;28;20233;-84
2021/03/11 01:21:07;;;;;;;5.67;4.50;;;;;;;5.51;58.88;95314.22;5039224;28;20226;-84
2021/03/11 01:23:34;;;;;;;5.00;4.50;;;;;;;5.53;58.96;95322.53;5040245;28;20293;-85
2021/03/11 01:25:59;;;;;;;7.23;5.13;;;;;;;5.57;58.62;95310.28;5029683;28;20209;-85
2021/03/11 01:28:26;;;;;;;5.00;4.13;;;;;;;5.58;59.01;95316.19;5020079;28;20222;-85
2021/03/11 01:30:52;;;;;;;4.43;4.03;;;;;;;5.58;58.61;95306.72;5020011;28;20229;-85
2021/03/11 01:33:18;;;;;;;4.50;4.10;;;;;;;5.60;58.69;95312.50;5020653;28;20231;-83
2021/03/11 01:35:45;;;;;;;5.23;3.90;;;;;;;5.60;58.23;95312.50;5020325;28;20235;-85
2021/03/11 01:38:10;;;;;;;5.50;4.30;;;;;;;5.61;57.96;95313.28;5020416;28;20222;-84
2021/03/11 01:40:36;;;;;;;4.47;4.00;;;;;;;5.62;57.82;95297.00;5019167;28;20284;-84
2021/03/11 01:43:03;;;;;;;5.43;4.50;;;;;;;5.57;57.98;95294.16;5030815;28;20221;-85
2021/03/11 01:45:30;;;;;;;4.53;4.03;;;;;;;5.57;58.24;95292.41;5039373;28;20217;-85
2021/03/11 01:47:56;;;;;;;4.10;3.70;;;;;;;5.57;58.23;95279.63;5039427;28;20313;-84
2021/03/11 01:50:22;;;;;;;3.60;3.30;;;;;;;5.61;57.71;95277.53;5039106;28;20237;-85
2021/03/11 01:52:50;;;;;;;4.23;3.83;;;;;;;5.61;57.97;95275.78;5039467;28;20233;-85
2021/03/11 01:55:17;;;;;;;4.23;3.83;;;;;;;5.62;57.48;95276.59;5039466;28;20241;-84
2021/03/11 01:57:43;;;;;;;4.83;3.80;;;;;;;5.65;57.32;95276.28;5037898;28;20485;-85
2021/03/11 02:00:11;;;;;;;4.90;3.83;;;;;;;5.66;57.94;95276.13;5038391;28;20323;-83
2021/03/11 02:02:41;;;;;;;3.83;3.50;;;;;;;5.72;57.77;95288.31;5038108;28;20202;-85
2021/03/11 02:05:09;;;;;;;4.23;3.67;;;;;;;5.76;57.54;95301.56;5038278;28;20264;-83
2021/03/11 02:07:35;;;;;;;3.90;3.33;;;;;;;5.68;56.22;95287.00;5033851;28;20231;-83
2021/03/11 02:10:01;;;;;;;3.70;3.23;;;;;;;5.71;56.28;95288.44;5018857;28;20231;-85
2021/03/11 02:12:34;;;;;;;4.03;3.43;;;;;;;5.71;56.56;95281.59;5018865;28;20799;-83
2021/03/11 02:15:06;;;;;;;2.93;2.70;;;;;;;5.74;56.23;95281.28;5018962;28;20283;-85
2021/03/11 02:17:39;;;;;;;3.67;3.23;;;;;;;5.73;55.86;95274.56;5032327;28;20198;-84
2021/03/11 02:20:38;;;;;;;3.77;2.80;;;;;;;5.77;55.78;95246.97;5039306;28;20413;-85
2021/03/11 02:23:24;;;;;;;2.67;2.33;;;;;;;5.68;54.61;95230.81;5037885;28;20245;-83
2021/03/11 02:25:57;;;;;;;3.00;2.70;;;;;;;5.77;55.51;95247.75;5027723;28;20226;-83
2021/03/11 02:28:28;;;;;;;3.03;2.73;;;;;;;5.70;55.00;95212.78;5037521;28;20233;-85
2021/03/11 02:30:56;;;;;;;2.90;2.60;;;;;;;5.58;56.17;95201.28;5037375;28;20245;-85
2021/03/11 02:33:26;;;;;;;3.87;2.97;;;;;;;5.51;56.01;95195.97;5038464;28;20233;-85
2021/03/11 02:35:54;;;;;;;3.53;2.50;;;;;;;5.62;56.13;95197.44;5037233;28;20226;-85
2021/03/11 02:38:22;;;;;;;2.83;2.53;;;;;;;5.73;56.05;95209.94;5041510;28;20244;-85
2021/03/11 02:40:50;;;;;;;3.20;2.40;;;;;;;5.77;54.66;95211.22;5042016;28;20226;-84
2021/03/11 02:43:17;;;;;;;3.20;2.50;;;;;;;5.80;53.48;95196.34;5041526;28;20240;-85
2021/03/11 02:45:43;;;;;;;4.87;2.53;;;;;;;5.88;54.01;95198.13;5041285;28;20221;-83
2021/03/11 02:48:12;;;;;;;2.43;2.20;;;;;;;5.92;53.88;95180.78;5042387;28;20222;-84
2021/03/11 02:50:40;;;;;;;4.97;2.30;;;;;;;5.96;53.54;95197.41;5041907;28;20214;-85
2021/03/11 02:53:08;;;;;;;2.57;2.37;;;;;;;6.03;53.62;95183.81;5042834;28;20965;-85
2021/03/11 02:55:37;;;;;;;2.67;2.47;;;;;;;6.07;53.20;95179.19;5041380;28;20252;-83
2021/03/11 02:58:04;;;;;;;2.57;2.37;;;;;;;6.11;53.29;95185.59;5041488;28;20233;-85
2021/03/11 03:00:31;;;;;;;2.80;2.53;;;;;;;6.16;53.07;95189.25;5040778;28;20241;-84
2021/03/11 03:02:57;;;;;;;2.47;2.27;;;;;;;6.18;52.52;95191.63;5041434;28;20226;-83
2021/03/11 03:05:26;;;;;;;2.80;2.50;;;;;;;6.16;52.28;95156.03;5041512;28;20198;-85
2021/03/11 03:07:54;;;;;;;3.33;2.47;;;;;;;6.11;52.47;95186.38;5033217;28;20219;-83
2021/03/11 03:10:22;;;;;;;2.60;2.30;;;;;;;6.13;52.58;95155.56;5020970;28;20238;-83
2021/03/11 03:12:50;;;;;;;2.83;2.43;;;;;;;6.16;51.96;95148.34;5020975;28;20230;-84
2021/03/11 03:15:21;;;;;;;3.60;2.57;;;;;;;6.17;51.33;95154.25;5021685;28;20249;-84
2021/03/11 03:17:48;;;;;;;4.37;2.33;;;;;;;6.24;51.43;95138.13;5037439;28;20230;-84
2021/03/11 03:20:16;;;;;;;2.80;2.37;;;;;;;6.26;50.32;95117.53;5041405;28;20436;-85
2021/03/11 03:22:42;;;;;;;2.73;2.43;;;;;;;6.34;50.17;95116.72;5040128;28;20233;-84
2021/03/11 03:25:09;;;;;;;3.20;2.87;;;;;;;6.43;49.00;95108.06;5041113;28;20236;-83
2021/03/11 03:27:35;;;;;;;3.27;2.70;;;;;;;6.54;47.91;95097.53;5041101;28;20509;-85
2021/03/11 03:30:05;;;;;;;4.33;2.73;;;;;;;6.65;48.09;95114.25;5040229;28;20237;-85
2021/03/11 03:32:31;;;;;;;4.57;2.80;;;;;;;6.81;49.25;95099.66;5041445;28;20198;-85
2021/03/11 03:34:57;;;;;;;3.30;2.70;;;;;;;6.89;48.10;95098.84;5041371;28;20697;-85
2021/03/11 03:37:23;;;;;;;3.70;2.73;;;;;;;6.79;48.79;95070.88;5041426;28;20697;-85
2021/03/11 03:39:50;;;;;;;3.40;3.10;;;;;;;6.84;45.69;95098.53;5039889;28;20300;-83
2021/03/11 03:42:18;;;;;;;5.60;3.00;;;;;;;7.03;45.74;95097.34;5040446;28;20241;-84
2021/03/11 03:44:47;;;;;;;5.30;3.00;;;;;;;7.17;45.67;95106.88;5040300;28;20210;-85
2021/03/11 03:47:15;;;;;;;4.17;3.00;;;;;;;7.24;45.52;95100.94;5040725;28;20576;-84
2021/03/11 03:49:41;;;;;;;3.23;2.93;;;;;;;7.33;45.38;95106.00;5039261;28;20234;-84
2021/03/11 03:52:08;;;;;;;3.07;2.77;;;;;;;7.41;46.08;95095.72;5039000;28;20229;-83
2021/03/11 03:54:38;;;;;;;3.10;2.67;;;;;;;7.46;46.22;95093.47;5040870;28;20230;-84
2021/03/11 03:57:12;;;;;;;3.20;2.90;;;;;;;7.54;46.28;95086.50;5040206;28;20612;-84
2021/03/11 03:59:41;;;;;;;3.47;3.17;;;;;;;7.57;46.79;95075.13;5039652;28;20229;-85
2021/03/11 04:02:08;;;;;;;3.27;2.90;;;;;;;7.56;46.33;95068.41;5041417;28;20214;-83
2021/03/11 04:04:37;;;;;;;3.50;2.90;;;;;;;7.53;45.89;95072.09;5040658;28;20615;-84
2021/03/11 04:07:04;;;;;;;3.43;2.70;;;;;;;7.56;45.84;95050.47;5039464;28;20292;-86
2021/03/11 04:09:31;;;;;;;2.93;2.63;;;;;;;7.60;46.03;95055.09;5019928;28;20748;-85
2021/03/11 04:11:57;;;;;;;4.47;2.80;;;;;;;7.65;46.43;95066.59;5019595;28;20249;-84
2021/03/11 04:14:27;;;;;;;2.90;2.60;;;;;;;7.68;46.18;95054.25;5021066;28;20202;-84
2021/03/11 04:16:54;;;;;;;3.17;2.83;;;;;;;7.63;45.31;95021.44;5028444;28;20244;-85
2021/03/11 04:19:22;;;;;;;4.20;3.00;;;;;;;7.61;45.67;95008.00;5040328;28;20233;-84
2021/03/11 04:21:48;;;;;;;4.87;2.63;;;;;;;7.65;45.32;95015.38;5040095;28;20230;-84
2021/03/11 04:24:16;;;;;;;5.37;2.70;;;;;;;7.64;45.32;95009.44;5039774;28;20252;-83
2021/03/11 04:26:43;;;;;;;4.70;2.60;;;;;;;7.66;45.32;95016.97;5038981;28;20377;-84
2021/03/11 04:29:09;;;;;;;3.57;2.70;;;;;;;7.64;44.55;95017.13;5038722;28;20587;-84
2021/03/11 04:31:37;;;;;;;4.23;3.00;;;;;;;7.62;45.01;95007.06;5038394;28;20230;-84
2021/03/11 04:34:04;;;;;;;4.07;2.77;;;;;;;7.68;44.66;95013.25;5038610;28;20230;-85
2021/03/11 04:36:31;;;;;;;3.33;2.90;;;;;;;7.69;44.86;95004.59;5038934;28;20348;-84
2021/03/11 04:38:57;;;;;;;3.40;2.60;;;;;;;7.70;44.84;95000.28;5040046;28;20226;-85
2021/03/11 04:41:24;;;;;;;3.40;2.33;;;;;;;7.75;45.08;94997.97;5039605;28;20202;-85
2021/03/11 04:43:51;;;;;;;4.10;2.50;;;;;;;7.80;45.34;94988.81;5039504;28;20350;-84
2021/03/11 04:46:19;;;;;;;2.53;2.23;;;;;;;7.82;45.23;94984.31;5039169;28;20607;-83
2021/03/11 04:48:47;;;;;;;3.47;2.43;;;;;;;7.82;45.31;94983.50;5038846;28;20701;-83
2021/03/11 04:51:16;;;;;;;2.57;2.10;;;;;;;7.84;45.67;94979.81;5038972;28;20230;-83
2021/03/11 04:53:42;;;;;;;3.90;2.40;;;;;;;7.87;45.56;94979.47;5038279;28;20285;-86
2021/03/11 04:56:10;;;;;;;2.40;2.20;;;;;;;7.85;45.63;94978.84;5038887;28;20210;-84
2021/03/11 04:58:36;;;;;;;3.10;2.30;;;;;;;7.84;44.90;94977.25;5038014;28;20226;-84
2021/03/11 05:01:08;;;;;;;2.83;2.30;;;;;;;7.84;45.23;94981.56;5037321;28;20226;-84
2021/03/11 05:03:34;;;;;;;3.77;2.40;;;;;;;7.84;45.50;94986.69;5038130;28;20229;-84
2021/03/11 05:06:01;;;;;;;4.87;2.07;;;;;;;7.81;45.36;94980.16;5038147;28;20226;-84
2021/03/11 05:08:27;;;;;;;2.40;2.20;;;;;;;7.80;45.86;94986.25;5025768;28;20210;-84
2021/03/11 05:10:53;;;;;;;3.70;2.00;;;;;;;7.81;45.86;94981.91;5018132;28;20215;-84
2021/03/11 05:13:19;;;;;;;3.80;2.10;;;;;;;7.80;45.13;94978.56;5017347;28;20235;-83
2021/03/11 05:15:45;;;;;;;3.47;2.40;;;;;;;7.80;45.57;94981.13;5017435;28;20237;-85
2021/03/11 05:18:11;;;;;;;3.20;1.80;;;;;;;7.81;45.80;94982.72;5036871;28;20248;-83
2021/03/11 05:20:37;;;;;;;2.30;1.93;;;;;;;7.78;45.28;94975.38;5038091;28;20257;-84
2021/03/11 05:23:04;;;;;;;3.50;1.80;;;;;;;7.74;45.72;94986.94;5038624;28;20214;-85
2021/03/11 05:25:30;;;;;;;2.37;1.60;;;;;;;7.69;45.29;94986.66;5038105;28;20296;-85
2021/03/11 05:27:56;;;;;;;1.97;1.60;;;;;;;7.66;45.51;94976.75;5036959;28;20222;-85
2021/03/11 05:30:22;;;;;;;2.60;1.40;;;;;;;7.71;44.84;94969.34;5037044;28;20225;-84
2021/03/11 05:32:48;;;;;;;3.70;1.70;;;;;;;7.68;44.16;94977.38;5037223;28;20234;-86
2021/03/11 05:35:14;;;;;;;2.70;1.70;;;;;;;7.68;44.60;94968.91;5037452;28;20222;-85
2021/03/11 05:37:41;;;;;;;3.37;1.70;;;;;;;7.69;44.77;94971.28;5036615;28;20257;-84
2021/03/11 05:40:10;;;;;;;5.97;1.50;;;;;;;7.65;44.41;94985.41;5036153;28;20233;-83
2021/03/11 05:42:37;;;;;;;2.30;1.50;;;;;;;7.70;44.06;94982.34;5036174;28;20236;-83
2021/03/11 05:45:06;;;;;;;2.63;1.70;;;;;;;7.75;44.74;94962.91;5036403;28;20230;-85
2021/03/11 05:47:33;;;;;;;1.77;1.60;;;;;;;7.76;44.59;94969.63;5035686;28;20677;-84
2021/03/11 05:50:00;;;;;;;3.53;1.67;;;;;;;7.76;44.90;94969.63;5032651;28;20461;-86
2021/03/11 05:52:26;;;;;;;2.53;1.73;;;;;;;7.78;44.24;94972.00;5025630;28;20230;-83
2021/03/11 05:54:54;;;;;;;4.00;2.10;;;;;;;7.74;44.54;94955.38;5017413;28;20218;-85
2021/03/11 05:57:20;;;;;;;4.23;1.93;;;;;;;7.74;44.33;94966.44;5031837;28;20240;-84
2021/03/11 05:59:47;;;;;;;4.13;1.80;;;;;;;7.74;45.30;94970.75;5032273;28;20241;-86
2021/03/11 06:02:13;;;;;;;2.20;1.40;;;;;;;7.69;45.08;94961.06;5034157;28;20239;-84
2021/03/11 06:04:40;;;;;;;4.00;1.50;;;;;;;7.66;45.07;94966.50;5033862;28;20229;-84
2021/03/11 06:07:07;;;;;;;2.13;1.30;;;;;;;7.61;44.77;94972.16;5018028;28;20230;-85
2021/03/11 06:09:33;;;;;;;3.53;1.40;;;;;;;7.64;45.19;94978.69;5017502;28;20230;-84
2021/03/11 06:12:00;;;;;;;2.03;1.37;;;;;;;7.64;45.83;94991.50;5032420;28;20221;-85
2021/03/11 06:14:31;;;;;;;1.70;1.40;;;;;;;7.66;45.10;94994.69;5032556;28;20225;-85
2021/03/11 06:16:59;;;;;;;1.87;1.57;;;;;;;7.68;44.88;94991.97;5032966;28;20233;-85
2021/03/11 06:19:27;;;;;;;2.30;1.20;;;;;;;7.77;45.22;94998.59;5027624;28;20227;-84
2021/03/11 06:21:53;;;;;;;5.27;1.73;;;;;;;7.81;45.24;94989.59;5014526;28;20234;-85
2021/03/11 06:24:21;;;;;;;6.53;1.63;;;;;;;7.80;45.30;94973.44;5013968;28;20230;-85
2021/03/11 06:26:49;;;;;;;1.50;1.40;;;;;;;7.69;44.87;94988.44;5029115;28;20287;-84
2021/03/11 06:29:16;;;;;;;2.03;1.27;;;;;;;7.76;44.82;94986.75;5014511;28;20218;-85
2021/03/11 06:31:45;;;;;;;1.77;1.30;;;;;;;7.75;45.20;94975.72;5016162;28;20785;-85
2021/03/11 06:34:19;;;;;;;1.77;1.40;;;;;;;7.84;45.76;94976.44;5015013;28;20227;-84
2021/03/11 06:36:45;;;;;;;1.83;1.47;;;;;;;7.93;46.50;94978.75;5014405;28;20227;-87
2021/03/11 06:39:23;;;;;;;1.70;1.30;;;;;;;8.00;46.62;94981.41;5015021;28;20230;-85
2021/03/11 06:41:49;;;;;;;1.90;1.70;;;;;;;8.05;47.67;94978.31;5014370;28;20238;-86
2021/03/11 06:44:15;;;;;;;3.07;1.40;;;;;;;8.08;47.61;94970.28;5013586;28;20210;-85
2021/03/11 06:46:57;;;;;;;2.97;1.60;;;;;;;8.07;48.87;94976.38;5014883;28;20253;-85
2021/03/11 06:49:23;;;;;;;3.13;1.50;;;;;;;8.08;48.38;94967.72;5013599;28;20230;-83
2021/03/11 06:51:49;;;;;;;3.83;1.70;;;;;;;8.02;49.04;94968.41;5011939;28;20306;-86
2021/03/11 06:54:15;;;;;;;2.80;1.57;;;;;;;8.03;48.81;94972.56;5013763;28;20229;-84
2021/03/11 06:56:42;;;;;;;1.90;1.60;;;;;;;8.01;48.79;94970.19;5013131;28;20648;-84
2021/03/11 06:59:08;;;;;;;1.63;1.30;;;;;;;8.09;49.00;94976.97;5011784;28;20231;-86
2021/03/11 07:01:36;;;;;;;1.97;1.50;;;;;;;8.12;49.31;94984.31;5011122;28;20234;-84
2021/03/11 07:04:03;;;;;;;2.00;1.60;;;;;;;8.07;50.35;94981.50;5010639;28;20231;-85
2021/03/11 07:16:27;;;;;;;3.30;1.70;;;;;;;8.38;54.96;94983.94;4989744;28;20231;-84
2021/03/11 07:19:14;;;;;;;3.80;2.00;;;;;;;8.55;53.09;94985.34;4996379;28;20246;-86
2021/03/11 07:21:43;;;;;;;4.97;1.80;;;;;;;8.58;50.54;94985.78;5011558;28;20737;-85
2021/03/11 07:24:10;;;;;;;3.13;1.80;;;;;;;8.58;49.89;94993.47;5014602;28;20309;-84
2021/03/11 07:26:37;;;;;;;2.30;1.70;;;;;;;8.47;49.48;94996.47;5029204;28;20210;-85
2021/03/11 07:29:19;;;;;;;3.40;1.90;;;;;;;8.50;49.77;95008.94;5037003;28;20222;-85
2021/03/11 07:31:53;;;;;;;1.63;1.53;;;;;;;8.48;50.33;95007.53;5035624;28;20229;-85
2021/03/11 07:34:25;;;;;;;3.90;2.23;;;;;;;8.47;51.32;95005.94;5035610;28;20256;-87
2021/03/11 07:36:56;;;;;;;3.30;2.10;;;;;;;8.46;50.24;95001.81;5036744;28;20226;-87
2021/03/11 07:39:25;;;;;;;1.60;1.50;;;;;;;8.42;50.19;95001.34;5034660;28;20240;-85
2021/03/11 07:41:51;;;;;;;3.27;1.87;;;;;;;8.51;50.68;94994.34;5035836;28;20225;-86
2021/03/11 07:44:18;;;;;;;3.97;2.00;;;;;;;8.52;50.40;94990.81;5034722;28;20278;-86
2021/03/11 07:46:44;;;;;;;3.10;2.20;;;;;;;8.50;51.27;94979.94;5035689;28;20234;-85
2021/03/11 07:49:11;;;;;;;4.00;2.20;;;;;;;8.48;51.91;94969.84;5036053;28;20225;-85
2021/03/11 07:51:39;;;;;;;3.10;2.37;;;;;;;8.50;52.60;94973.03;5034902;28;20240;-85
2021/03/11 07:54:06;;;;;;;5.00;2.30;;;;;;;8.55;52.76;94967.38;5034653;28;20226;-85
2021/03/11 07:56:33;;;;;;;4.33;2.17;;;;;;;8.49;53.61;94966.31;5033728;28;20217;-85
2021/03/11 07:59:03;;;;;;;4.60;2.27;;;;;;;8.51;53.36;94961.81;5035125;28;20315;-85
2021/03/11 08:01:32;;;;;;;2.57;2.37;;;;;;;8.49;53.87;94958.63;5035055;28;20248;-85
2021/03/11 08:03:58;;;;;;;2.70;2.43;;;;;;;8.56;54.01;94949.25;5034773;28;20230;-86
2021/03/11 08:06:26;;;;;;;4.57;2.63;;;;;;;8.63;53.51;94942.41;5034353;28;20883;-87
2021/03/11 08:08:53;;;;;;;2.60;2.30;;;;;;;8.68;53.75;94941.88;5032738;28;20230;-85
2021/03/11 08:11:36;;;;;;;2.43;2.23;;;;;;;8.65;53.84;94939.69;5033680;28;20206;-87
2021/03/11 08:14:22;;;;;;;4.57;2.20;;;;;;;8.80;53.94;94937.06;5035742;28;20223;-87
2021/03/11 08:16:49;;;;;;;3.27;1.90;;;;;;;8.86;53.37;94939.69;5028910;28;20233;-87
2021/03/11 08:19:50;;;;;;;3.97;2.37;;;;;;;8.99;53.18;94929.56;5015587;28;20226;-86
2021/03/11 08:22:50;;;;;;;2.17;1.97;;;;;;;9.13;53.55;94927.13;5017123;28;20230;-86
2021/03/11 08:25:42;;;;;;;2.70;1.90;;;;;;;9.24;53.13;94931.75;5015511;28;20241;-85
2021/03/11 08:28:38;;;;;;;3.07;1.80;;;;;;;9.35;53.47;94934.66;5017269;28;20226;-85
2021/03/11 08:31:06;;;;;;;2.13;1.70;;;;;;;9.43;53.02;94936.28;5011193;28;20253;-86
2021/03/11 08:33:45;;;;;;;1.70;1.60;;;;;;;9.52;53.45;94926.69;5016943;28;20312;-87
2021/03/11 08:36:40;;;;;;;1.87;1.60;;;;;;;9.53;53.90;94928.25;5017593;28;20257;-86
2021/03/11 08:39:36;;;;;;;2.27;1.50;;;;;;;9.62;53.31;94932.31;4971809;28;20230;-85
2021/03/11 08:42:48;;;;;;;1.73;1.50;;;;;;;9.67;53.41;94914.53;5015012;28;20233;-85
2021/03/11 08:46:00;;;;;;;2.37;1.30;;;;;;;9.80;54.04;94917.22;4987710;28;20241;-87
2021/03/11 08:48:26;;;;;;;1.00;1.00;;;;;;;9.91;53.95;94915.88;5013128;28;20238;-87
2021/03/11 08:50:58;;;;;;;1.33;1.00;;;;;;;9.99;54.21;94908.81;5013265;28;20231;-85
2021/03/11 08:53:46;;;;;;;2.33;1.30;;;;;;;10.04;53.92;94906.44;5013354;28;20203;-85
2021/03/11 08:56:41;;;;;;;1.00;0.90;;;;;;;10.14;53.63;94913.03;5012461;28;20214;-84
2021/03/11 08:59:12;;;;;;;0.90;0.90;;;;;;;10.18;53.60;94902.19;5012151;28;20635;-86
2021/03/11 09:01:41;;;;;;;1.17;0.83;;;;;;;10.29;53.39;94909.38;5014549;28;20232;-87
2021/03/11 09:04:30;;;;;;;1.13;0.90;;;;;;;10.42;53.56;94902.69;5015297;28;20229;-88
2021/03/11 09:06:58;;;;;;;2.00;0.90;;;;;;;10.46;53.86;94901.34;5014175;28;20230;-86
2021/03/11 09:09:35;;;;;;;1.20;0.80;;;;;;;10.53;53.10;94889.28;5012779;28;20226;-87
2021/03/11 09:12:03;;;;;;;1.50;1.23;;;;;;;10.57;53.44;94888.72;5015429;28;20300;-87
2021/03/11 09:14:29;;;;;;;1.77;1.00;;;;;;;10.65;52.64;94892.88;5021444;28;20222;-88
2021/03/11 09:17:04;;;;;;;1.47;1.37;;;;;;;10.71;52.34;94898.06;5029425;28;20198;-87
2021/03/11 09:19:50;;;;;;;2.17;0.93;;;;;;;10.72;52.58;94896.28;5041919;28;20269;-87
2021/03/11 09:22:25;;;;;;;1.60;1.17;;;;;;;10.79;52.52;94891.94;5040122;28;20597;-85
2021/03/11 09:25:13;;;;;;;1.50;1.13;;;;;;;10.86;52.14;94890.19;5039996;28;20436;-89
2021/03/11 09:27:41;;;;;;;1.30;1.20;;;;;;;10.90;51.72;94885.44;5032560;28;20301;-88
2021/03/11 09:30:11;;;;;;;5.80;1.10;;;;;;;10.93;51.61;94878.13;5040271;28;20237;-88
2021/03/11 09:32:41;;;;;;;3.07;1.40;;;;;;;11.00;51.70;94884.06;5040689;28;20197;-88
2021/03/11 09:35:09;;;;;;;2.30;1.20;;;;;;;11.04;50.94;94859.50;5039180;28;20207;-88
2021/03/11 09:37:55;;;;;;;2.97;1.07;;;;;;;11.13;50.74;94867.03;5037186;28;20316;-87
2021/03/11 09:40:28;;;;;;;1.20;1.10;;;;;;;11.18;50.82;94857.72;5041625;28;20304;-89
2021/03/11 09:43:24;;;;;;;4.77;1.73;;;;;;;11.28;49.89;94865.06;5038216;28;20312;-89
2021/03/11 09:45:53;;;;;;;2.03;1.20;;;;;;;11.37;50.05;94862.06;5038179;28;20237;-87
2021/03/11 09:48:23;;;;;;;2.00;1.00;;;;;;;11.33;48.89;94860.13;5035003;28;20222;-88
2021/03/11 09:51:04;;;;;;;2.60;1.00;;;;;;;11.38;48.90;94853.34;5035674;28;20260;-86
2021/03/11 09:53:35;;;;;;;2.60;1.20;;;;;;;11.46;48.94;94849.78;5034061;28;20194;-88
2021/03/11 09:56:02;;;;;;;0.87;0.87;;;;;;;11.50;48.61;94843.25;5033540;28;20202;-87
2021/03/11 09:58:30;;;;;;;2.13;0.80;;;;;;;11.57;48.52;94850.97;5033587;28;20229;-87
2021/03/11 10:00:56;;;;;;;1.07;0.97;;;;;;;11.63;48.47;94850.97;5032585;28;20240;-87
2021/03/11 10:03:25;;;;;;;1.10;0.90;;;;;;;11.68;48.64;94858.88;5036847;28;20225;-87
2021/03/11 10:05:54;;;;;;;1.13;0.87;;;;;;;11.74;48.13;94847.75;5036625;28;20709;-88
2021/03/11 10:08:32;;;;;;;1.90;0.97;;;;;;;11.78;48.08;94840.44;5038739;28;20270;-87
2021/03/11 10:11:14;;;;;;;1.30;1.20;;;;;;;11.80;47.80;94833.28;5035291;28;20210;-87
2021/03/11 10:13:54;;;;;;;2.47;0.80;;;;;;;11.85;47.93;94833.50;5035341;28;20249;-87
2021/03/11 10:16:38;;;;;;;2.00;1.00;;;;;;;11.99;47.48;94854.88;5034369;28;20229;-89
2021/03/11 10:19:08;;;;;;;1.57;1.17;;;;;;;12.03;47.72;94827.69;5033015;28;20631;-88
2021/03/11 10:21:50;;;;;;;1.10;1.00;;;;;;;12.10;48.22;94836.19;5035103;28;20234;-87
2021/03/11 10:24:40;;;;;;;1.80;1.07;;;;;;;12.14;48.02;94831.41;5034921;28;20233;-89
2021/03/11 10:27:17;;;;;;;1.27;1.00;;;;;;;12.25;47.57;94830.78;5033024;28;20221;-88
2021/03/11 10:29:44;;;;;;;4.40;0.90;;;;;;;12.26;48.32;94824.63;5033387;28;20225;-87
2021/03/11 10:32:11;;;;;;;3.33;1.20;;;;;;;12.24;47.88;94814.50;5032396;28;20304;-87
2021/03/11 10:34:48;;;;;;;5.97;1.40;;;;;;;12.35;48.02;94815.63;5034464;28;20252;-87
2021/03/11 10:37:24;;;;;;;3.93;1.30;;;;;;;12.41;47.95;94802.69;5035696;28;20278;-88
2021/03/11 10:39:53;;;;;;;1.20;0.90;;;;;;;12.48;47.79;94810.41;5035163;28;20256;-87
2021/03/11 10:42:19;;;;;;;1.70;0.90;;;;;;;12.49;47.65;94793.94;5034570;28;20299;-88
2021/03/11 10:44:55;;;;;;;2.40;1.10;;;;;;;12.59;47.60;94798.63;5033337;28;20297;-87
2021/03/11 10:47:24;;;;;;;3.30;0.90;;;;;;;12.67;47.63;94788.06;5035141;28;20206;-88
2021/03/11 10:49:51;;;;;;;0.90;0.90;;;;;;;12.76;47.46;94786.78;5034158;28;20230;-87
2021/03/11 10:52:17;;;;;;;2.83;1.00;;;;;;;12.81;47.66;94771.47;5035049;28;20226;-89
2021/03/11 10:54:44;;;;;;;2.00;1.00;;;;;;;12.99;47.29;94768.94;5035147;28;20242;-88
2021/03/11 10:57:12;;;;;;;2.30;0.90;;;;;;;13.16;47.21;94774.41;5034243;28;20226;-88
2021/03/11 10:59:52;;;;;;;1.40;1.07;;;;;;;13.23;47.19;94757.03;5037878;28;20236;-88
2021/03/11 11:02:20;;;;;;;2.23;0.90;;;;;;;13.30;47.21;94770.69;5038327;28;20209;-88
2021/03/11 11:04:46;;;;;;;1.73;1.20;;;;;;;13.42;46.83;94766.41;5038092;28;20228;-89
2021/03/11 11:07:24;;;;;;;1.27;1.00;;;;;;;13.58;47.10;94765.06;5035658;28;20253;-85
2021/03/11 11:09:50;;;;;;;2.23;0.90;;;;;;;13.86;46.68;94753.41;5037006;28;20229;-88
2021/03/11 11:12:19;;;;;;;3.57;1.23;;;;;;;13.98;46.54;94780.94;5021069;28;20222;-86
2021/03/11 11:14:46;;;;;;;1.27;1.17;;;;;;;13.93;46.56;94749.72;5038315;28;20202;-88
2021/03/11 11:17:12;;;;;;;3.10;0.90;;;;;;;13.89;46.39;94745.19;5039705;28;20546;-88
2021/03/11 11:19:41;;;;;;;0.70;0.70;;;;;;;13.95;46.38;94732.19;5039467;28;20843;-88
2021/03/11 11:22:09;;;;;;;2.33;0.90;;;;;;;14.05;45.99;94747.97;5038977;28;20366;-88
2021/03/11 11:24:35;;;;;;;0.70;0.70;;;;;;;14.32;46.36;94763.19;5038959;28;20724;-87
2021/03/11 11:27:11;;;;;;;0.93;0.73;;;;;;;14.44;45.98;94738.94;5039299;28;20230;-88
2021/03/11 11:29:43;;;;;;;0.90;0.90;;;;;;;14.47;45.50;94742.88;5038587;28;20252;-88
2021/03/11 11:32:09;;;;;;;1.23;1.00;;;;;;;14.50;45.72;94740.66;5038217;28;20206;-88
2021/03/11 11:34:35;;;;;;;1.13;0.80;;;;;;;14.58;46.22;94744.75;5037293;28;20230;-88
2021/03/11 11:37:03;;;;;;;3.33;0.87;;;;;;;14.56;46.08;94733.00;5038007;28;20603;-86
2021/03/11 11:39:32;;;;;;;1.67;0.93;;;;;;;14.69;46.14;94727.63;5037279;28;20232;-87
2021/03/11 11:41:59;;;;;;;3.13;1.33;;;;;;;14.87;46.08;94730.13;5037623;28;20613;-87
2021/03/11 11:44:25;;;;;;;0.90;0.90;;;;;;;14.96;46.31;94723.63;5038500;28;20666;-87
2021/03/11 11:46:51;;;;;;;10.43;1.70;;;;;;;15.11;45.85;94694.66;5036059;28;20238;-87
2021/03/11 11:49:23;;;;;;;1.33;0.90;;;;;;;15.27;46.00;94706.13;5036567;28;20230;-87
2021/03/11 11:51:52;;;;;;;2.90;1.00;;;;;;;15.42;46.28;94677.91;5038798;28;20317;-86
2021/03/11 11:54:19;;;;;;;1.40;1.10;;;;;;;15.62;46.51;94685.34;5038017;28;20259;-87
2021/03/11 11:56:45;;;;;;;2.30;0.90;;;;;;;15.69;46.14;94707.56;5037666;28;20222;-87
2021/03/11 11:59:15;;;;;;;1.13;0.70;;;;;;;15.69;46.37;94694.59;5036224;28;20283;-88
2021/03/11 12:01:41;;;;;;;0.60;0.60;;;;;;;15.68;46.66;94689.63;5034675;28;20246;-87